Time;durP1;ratioP1;P1;durP2;ratioP2;P2;SDS_P1;SDS_P2;PMS_P1;PMS_P2;Temp;Humidity;BMP_temperature;BMP_pressure;BME280_temperature;BME280_humidity;BME280_pressure;Samples;Min_cycle;Max_cycle;Signal;HPM_P1;HPM_P2
2021/01/14 00:00:17;;;;;;;2.92;1.48;;;0.40;96.00;;;4.34;76.13;101694.63;5026641;28;97163;-71
2021/01/14 00:02:45;;;;;;;3.95;0.50;;;0.30;95.90;;;4.31;76.00;101695.88;5020178;28;96766;-71
2021/01/14 00:05:15;;;;;;;0.13;0.13;;;0.30;95.90;;;4.26;76.15;101701.09;5021735;28;96733;-71
2021/01/14 00:07:53;;;;;;;0.32;0.32;;;0.30;95.80;;;4.22;76.42;101699.97;5020549;28;97381;-71
2021/01/14 00:10:21;;;;;;;0.20;0.20;;;0.20;95.80;;;4.24;76.23;101699.75;5026410;28;97880;-71
2021/01/14 00:12:50;;;;;;;0.30;0.30;;;0.20;95.70;;;4.25;76.04;101701.34;5009645;28;96851;-71
2021/01/14 00:15:18;;;;;;;0.35;0.35;;;0.20;95.80;;;4.30;75.70;101701.44;5020241;27;97584;-71
2021/01/14 00:17:46;;;;;;;0.30;0.30;;;0.10;95.70;;;4.31;75.24;101705.72;5018108;28;97033;-71
2021/01/14 00:20:17;;;;;;;0.10;0.10;;;0.10;95.70;;;4.17;76.02;101707.00;5018560;28;96730;-71
2021/01/14 00:22:47;;;;;;;0.13;0.13;;;0.10;95.70;;;4.15;75.44;101711.75;5007616;28;97723;-71
2021/01/14 00:25:18;;;;;;;0.17;0.17;;;0.00;95.70;;;4.24;75.33;101711.16;5017140;28;96824;-71
2021/01/14 00:27:46;;;;;;;0.60;0.60;;;0.00;95.70;;;4.27;75.48;101720.50;5021290;27;96913;-71
2021/01/14 00:30:25;;;;;;;0.10;0.10;;;0.00;95.70;;;4.23;75.41;101716.72;5020462;28;97317;-71
2021/01/14 00:32:53;;;;;;;0.20;0.20;;;0.00;95.70;;;4.28;74.51;101709.63;5018303;27;97784;-71
2021/01/14 00:35:20;;;;;;;2.42;1.85;;;-0.10;95.60;;;4.11;75.18;101713.25;5022225;27;97453;-71
2021/01/14 00:37:50;;;;;;;0.40;0.30;;;0.00;95.70;;;4.07;75.64;101723.56;5018174;28;97223;-71
2021/01/14 00:40:25;;;;;;;0.30;0.30;;;-0.10;95.70;;;4.06;76.13;101729.09;5026938;28;97851;-71
2021/01/14 00:42:55;;;;;;;0.22;0.22;;;-0.10;95.70;;;3.96;76.56;101734.19;5019852;27;96658;-71
2021/01/14 00:45:27;;;;;;;0.63;0.63;;;-0.10;95.70;;;4.06;75.78;101745.00;5021564;28;96740;-71
2021/01/14 00:47:55;;;;;;;0.28;0.28;;;-0.10;95.70;;;4.11;75.34;101740.59;5025805;28;97350;-71
2021/01/14 00:50:23;;;;;;;0.20;0.20;;;-0.10;95.70;;;4.16;75.00;101740.69;5020157;28;98979;-71
2021/01/14 00:52:51;;;;;;;0.20;0.20;;;-0.20;95.70;;;4.27;75.12;101736.41;5018768;28;97686;-71
2021/01/14 00:55:20;;;;;;;0.30;0.30;;;-0.20;95.70;;;4.15;75.66;101736.44;5026419;28;96880;-71
2021/01/14 00:57:48;;;;;;;0.28;0.28;;;-0.20;95.70;;;4.18;75.31;101745.75;5019320;28;97179;-71
2021/01/14 01:00:21;;;;;;;0.65;0.65;;;-0.20;95.70;;;4.14;74.71;101749.91;5018537;27;97226;-71
2021/01/14 01:02:52;;;;;;;;;;;-0.20;95.70;;;4.20;75.24;101747.13;5020026;28;97660;-71
2021/01/14 01:05:22;;;;;;;0.10;0.10;;;-0.20;95.70;;;4.15;74.95;101747.03;5025334;27;96751;-71
2021/01/14 01:07:52;;;;;;;0.20;0.20;;;-0.20;95.70;;;4.20;74.38;101755.09;5019002;28;96847;-71
2021/01/14 01:10:20;;;;;;;9.75;2.20;;;-0.20;95.70;;;4.14;75.07;101750.75;5017639;27;98178;-71
2021/01/14 01:12:53;;;;;;;0.20;0.20;;;-0.20;95.70;;;4.11;75.21;101750.38;5018567;27;97667;-71
2021/01/14 01:15:21;;;;;;;0.17;0.17;;;-0.30;95.70;;;4.07;75.30;101742.13;5018453;27;96721;-71
2021/01/14 01:17:50;;;;;;;0.28;0.28;;;-0.30;95.70;;;4.01;74.71;101752.84;5027056;28;97321;-71
2021/01/14 01:20:18;;;;;;;0.20;0.20;;;-0.30;95.70;;;3.99;75.92;101742.47;5017665;28;98084;-71
2021/01/14 01:22:46;;;;;;;3.35;0.60;;;-0.30;95.70;;;3.97;75.22;101739.22;5018397;27;97455;-71
2021/01/14 01:25:14;;;;;;;0.63;0.63;;;-0.30;95.70;;;3.98;75.64;101742.72;5018087;28;96687;-71
2021/01/14 01:27:42;;;;;;;0.73;0.73;;;-0.30;95.70;;;4.01;75.71;101748.34;5019706;28;97373;-71
2021/01/14 01:30:12;;;;;;;0.40;0.40;;;-0.30;95.70;;;4.03;75.79;101759.50;5024425;28;97990;-71
2021/01/14 01:32:40;;;;;;;0.68;0.68;;;-0.30;95.70;;;4.08;75.32;101761.47;5018823;27;97690;-70
2021/01/14 01:35:11;;;;;;;0.15;0.15;;;-0.30;95.80;;;4.11;75.75;101751.22;5019253;27;97103;-71
2021/01/14 01:37:39;;;;;;;0.20;0.20;;;-0.30;95.80;;;4.08;75.71;101756.16;5020718;28;96968;-71
2021/01/14 01:40:09;;;;;;;0.20;0.20;;;-0.30;95.80;;;4.17;75.50;101757.41;5026829;28;97859;-71
2021/01/14 01:42:37;;;;;;;1.27;0.52;;;-0.30;95.80;;;4.10;75.83;101762.03;5001378;28;98706;-70
2021/01/14 01:45:07;;;;;;;0.20;0.20;;;-0.30;95.80;;;4.13;75.31;101758.91;5017761;28;96768;-71
2021/01/14 01:47:37;;;;;;;0.20;0.20;;;-0.30;95.80;;;4.04;75.59;101769.06;5002407;28;96870;-70
2021/01/14 01:50:08;;;;;;;0.10;0.10;;;-0.30;95.80;;;4.00;76.18;101772.44;5022864;28;98113;-70
2021/01/14 01:52:36;;;;;;;0.20;0.20;;;-0.30;95.80;;;4.03;76.06;101774.63;5018175;28;97753;-70
2021/01/14 01:55:07;;;;;;;0.10;0.10;;;-0.30;95.80;;;4.10;76.16;101781.41;4992641;28;97124;-70
2021/01/14 01:57:35;;;;;;;0.30;0.30;;;-0.20;95.90;;;4.10;75.65;101785.91;5019540;28;96894;-71
2021/01/14 02:00:07;;;;;;;0.20;0.20;;;-0.20;95.90;;;4.10;76.54;101788.56;5020502;27;96843;-71
2021/01/14 02:02:35;;;;;;;0.20;0.20;;;-0.20;95.90;;;4.13;76.16;101790.72;5018125;28;97809;-71
2021/01/14 02:05:06;;;;;;;0.20;0.20;;;-0.20;95.90;;;4.16;76.14;101795.56;5026233;28;97420;-71
2021/01/14 02:07:59;;;;;;;0.10;0.10;;;-0.20;95.90;;;4.16;75.71;101795.56;5020911;28;96856;-71
2021/01/14 02:10:34;;;;;;;0.55;0.55;;;-0.20;95.90;;;4.13;75.84;101793.38;5018317;27;96830;-70
2021/01/14 02:13:16;;;;;;;1.30;0.73;;;-0.20;95.90;;;4.06;75.30;101792.72;5016369;28;97929;-71
2021/01/14 02:15:47;;;;;;;0.20;0.20;;;-0.20;95.90;;;4.00;75.73;101802.41;5015256;28;96873;-71
2021/01/14 02:18:18;;;;;;;0.40;0.40;;;-0.20;95.90;;;3.75;76.38;101793.09;5016505;28;97091;-71
2021/01/14 02:20:51;;;;;;;1.67;0.60;;;-0.20;95.80;;;3.89;74.91;101805.88;5017565;28;96944;-70
2021/01/14 02:23:33;;;;;;;0.20;0.20;;;-0.30;95.80;;;3.88;75.14;101803.44;5015067;28;98409;-70
2021/01/14 02:26:14;;;;;;;2.03;0.60;;;-0.30;95.70;;;3.83;74.83;101804.16;5017821;28;97022;-70
2021/01/14 02:28:45;;;;;;;1.75;1.00;;;-0.30;95.70;;;3.60;75.34;101800.69;5020841;27;96685;-70
2021/01/14 02:31:15;;;;;;;0.10;0.10;;;-0.40;95.60;;;3.56;75.48;101805.66;5014171;28;96868;-70
2021/01/14 02:33:44;;;;;;;7.03;1.17;;;-0.40;95.60;;;3.56;75.99;101810.13;5017429;28;97303;-70
2021/01/14 02:36:11;;;;;;;0.20;0.20;;;-0.40;95.60;;;3.53;75.42;101819.34;5012963;28;96758;-70
2021/01/14 02:38:40;;;;;;;0.30;0.30;;;-0.50;95.60;;;3.47;76.43;101819.44;5017619;28;96777;-71
2021/01/14 02:41:08;;;;;;;0.10;0.10;;;-0.50;95.60;;;3.39;76.20;101822.44;5022415;28;96886;-70
2021/01/14 02:43:36;;;;;;;44.17;1.17;;;-0.50;95.60;;;3.40;76.38;101821.41;5025570;28;97683;-70
2021/01/14 02:46:08;;;;;;;0.20;0.20;;;-0.50;95.60;;;3.38;76.55;101831.44;5014132;28;96815;-70
2021/01/14 02:48:40;;;;;;;0.25;0.25;;;-0.60;95.50;;;3.35;76.30;101837.19;5022356;28;96766;-70
2021/01/14 02:51:16;;;;;;;0.65;0.38;;;-0.50;95.60;;;3.38;76.49;101845.47;5014778;27;97852;-71
2021/01/14 02:53:45;;;;;;;6.57;2.50;;;-0.60;95.60;;;3.34;75.47;101844.31;5015813;28;97716;-70
2021/01/14 02:56:15;;;;;;;0.50;0.50;;;-0.60;95.70;;;3.51;74.88;101849.75;5018991;27;96869;-71
2021/01/14 02:58:42;;;;;;;0.10;0.10;;;-0.60;95.50;;;3.53;75.52;101852.97;5023652;28;96722;-71
2021/01/14 03:01:10;;;;;;;0.20;0.20;;;-0.60;95.50;;;3.48;74.52;101855.50;5016158;27;96848;-71
2021/01/14 03:03:38;;;;;;;0.82;0.82;;;-0.60;95.50;;;3.46;75.52;101852.28;5017796;28;96752;-71
2021/01/14 03:06:06;;;;;;;0.22;0.22;;;-0.70;95.50;;;3.40;75.11;101864.56;5017857;28;97196;-70
2021/01/14 03:08:34;;;;;;;0.20;0.20;;;-0.70;95.50;;;3.38;75.07;101852.63;5024920;28;96901;-70
2021/01/14 03:11:04;;;;;;;0.30;0.30;;;-0.70;95.40;;;3.38;74.71;101860.56;5015990;28;97842;-70
2021/01/14 03:13:32;;;;;;;0.35;0.35;;;-0.70;95.40;;;3.35;74.44;101866.31;5018089;28;97222;-70
2021/01/14 03:15:59;;;;;;;0.40;0.40;;;-0.80;95.30;;;3.29;74.26;101868.00;5019018;28;97783;-71
2021/01/14 03:18:30;;;;;;;4.50;3.10;;;-0.80;95.30;;;3.30;74.28;101871.44;5017464;27;96946;-70
2021/01/14 03:20:58;;;;;;;0.38;0.38;;;-0.80;95.30;;;3.26;73.93;101875.59;5018930;27;98058;-71
2021/01/14 03:23:25;;;;;;;0.20;0.20;;;-0.80;95.30;;;3.28;74.31;101870.88;5018464;28;97586;-70
2021/01/14 03:25:53;;;;;;;0.30;0.30;;;-0.90;95.20;;;3.19;74.84;101872.25;5018528;28;96727;-70
2021/01/14 03:28:21;;;;;;;0.10;0.10;;;-0.90;95.20;;;3.20;75.05;101876.50;5018712;28;96872;-70
2021/01/14 03:30:49;;;;;;;0.20;0.20;;;-0.90;95.20;;;3.09;75.04;101872.78;5026118;27;97796;-72
2021/01/14 03:33:17;;;;;;;0.10;0.10;;;-1.00;95.20;;;3.03;73.70;101878.97;5019612;28;97643;-72
2021/01/14 03:35:45;;;;;;;0.28;0.28;;;-1.00;95.20;;;2.96;75.57;101876.66;5020385;27;96839;-72
2021/01/14 03:38:12;;;;;;;0.10;0.10;;;-1.00;95.20;;;2.97;74.75;101881.69;5027460;28;97304;-72
2021/01/14 03:40:40;;;;;;;0.30;0.30;;;-1.00;95.20;;;2.92;75.04;101886.84;5017131;28;98077;-72
2021/01/14 03:43:08;;;;;;;0.25;0.25;;;-1.10;95.10;;;2.92;75.25;101888.72;5020986;27;97661;-70
2021/01/14 03:45:37;;;;;;;0.10;0.10;;;-1.10;95.10;;;2.69;75.34;101899.16;5011540;28;96890;-70
2021/01/14 03:48:08;;;;;;;0.20;0.20;;;-1.10;95.10;;;2.43;75.07;101900.28;5018682;28;96901;-70
2021/01/14 03:50:35;;;;;;;0.20;0.20;;;-1.20;95.00;;;2.35;76.61;101905.06;5018384;28;98106;-71
2021/01/14 03:53:04;;;;;;;0.30;0.30;;;-1.20;95.00;;;2.34;75.44;101911.38;5024582;28;97732;-70
2021/01/14 03:55:31;;;;;;;0.22;0.22;;;-1.20;95.00;;;2.30;76.66;101908.34;5027305;28;97245;-70
2021/01/14 03:57:59;;;;;;;0.20;0.20;;;-1.30;95.00;;;2.38;76.10;101915.97;5019933;28;97221;-70
2021/01/14 04:00:30;;;;;;;5.82;1.17;;;-1.30;95.00;;;2.46;75.71;101906.94;5025198;27;98196;-70
2021/01/14 04:02:58;;;;;;;1.65;0.63;;;-1.30;95.10;;;2.65;75.12;101905.94;5019854;28;97598;-70
2021/01/14 04:05:26;;;;;;;0.20;0.20;;;-1.30;95.10;;;2.69;74.67;101901.81;5018790;28;96792;-70
2021/01/14 04:07:54;;;;;;;0.20;0.20;;;-1.30;95.10;;;2.73;75.26;101901.16;5017066;28;97029;-70
2021/01/14 04:10:22;;;;;;;0.20;0.20;;;-1.30;95.20;;;2.73;74.55;101909.09;5020475;27;97803;-70
2021/01/14 04:12:50;;;;;;;0.20;0.20;;;-1.30;95.20;;;2.71;75.70;101900.59;5007625;28;96777;-70
2021/01/14 04:15:18;;;;;;;0.20;0.20;;;-1.30;95.20;;;2.74;74.34;101900.13;5019023;27;96787;-70
2021/01/14 04:17:47;;;;;;;0.20;0.20;;;-1.30;95.20;;;2.76;74.52;101899.91;5024641;28;97211;-70
2021/01/14 04:20:15;;;;;;;0.17;0.17;;;-1.30;95.30;;;2.74;74.25;101905.44;5020049;28;97419;-70
2021/01/14 04:22:43;;;;;;;0.10;0.10;;;-1.30;95.20;;;2.79;74.18;101910.84;5016850;28;96923;-70
2021/01/14 04:25:12;;;;;;;1.27;0.35;;;-1.30;95.20;;;2.83;75.67;101906.72;5025055;28;97180;-70
2021/01/14 04:27:39;;;;;;;0.20;0.20;;;-1.30;95.20;;;2.78;75.37;101911.06;5014704;28;97340;-70
2021/01/14 04:30:09;;;;;;;2.88;0.45;;;-1.30;95.20;;;2.78;75.44;101909.25;5021826;27;97998;-70
2021/01/14 04:32:37;;;;;;;0.10;0.10;;;-1.30;95.20;;;2.63;74.89;101902.72;5018641;27;97726;-70
2021/01/14 04:35:07;;;;;;;0.13;0.13;;;-1.30;95.20;;;2.65;75.86;101916.53;5027358;28;97531;-70
2021/01/14 04:37:35;;;;;;;6.93;0.68;;;-1.30;95.20;;;2.64;75.81;101918.34;5021250;28;96921;-70
2021/01/14 04:40:08;;;;;;;0.50;0.50;;;-1.40;95.10;;;2.63;75.25;101908.00;5018690;27;98050;-70
2021/01/14 04:42:49;;;;;;;0.13;0.13;;;-1.40;95.10;;;2.66;74.68;101913.63;5017743;28;98432;-70
2021/01/14 04:45:21;;;;;;;0.20;0.20;;;-1.40;95.20;;;2.80;75.28;101915.13;5002352;28;96916;-70
2021/01/14 04:47:50;;;;;;;0.40;0.40;;;-1.40;95.20;;;2.72;74.90;101909.31;5019751;28;97364;-70
2021/01/14 04:50:18;;;;;;;0.20;0.20;;;-1.40;95.20;;;2.68;75.29;101903.63;5018460;28;97832;-70
2021/01/14 04:52:48;;;;;;;0.20;0.20;;;-1.40;95.20;;;2.74;74.09;101910.72;5024442;28;97527;-70
2021/01/14 04:55:21;;;;;;;0.35;0.35;;;-1.40;95.30;;;2.73;75.12;101913.56;5018358;28;97066;-70
2021/01/14 04:57:51;;;;;;;5.07;1.75;;;-1.40;95.30;;;2.68;73.96;101911.56;5016088;27;96808;-70
2021/01/14 05:00:22;;;;;;;0.30;0.30;;;-1.40;95.30;;;2.69;74.88;101921.13;5017753;28;98071;-70
2021/01/14 05:03:04;;;;;;;2.67;0.85;;;-1.40;95.20;;;2.65;74.33;101919.97;5019618;28;97676;-70
2021/01/14 05:05:33;;;;;;;0.20;0.20;;;-1.40;95.20;;;2.63;74.19;101918.59;5021346;28;96653;-70
2021/01/14 05:08:06;;;;;;;0.68;0.40;;;-1.50;95.20;;;2.65;74.57;101912.03;5019514;28;97267;-70
2021/01/14 05:10:37;;;;;;;0.40;0.40;;;-1.50;95.20;;;2.66;74.44;101924.22;5018575;28;98230;-70
2021/01/14 05:13:07;;;;;;;0.20;0.20;;;-1.50;95.20;;;2.63;74.30;101923.88;5018082;28;98288;-70
2021/01/14 05:15:36;;;;;;;3.20;1.85;;;-1.50;95.20;;;2.42;75.56;101930.41;5019689;27;96727;-70
2021/01/14 05:18:06;;;;;;;0.20;0.20;;;-1.50;95.20;;;2.49;74.93;101932.97;5018363;27;97040;-70
2021/01/14 05:20:34;;;;;;;0.17;0.17;;;-1.50;95.20;;;2.36;75.19;101933.91;5020359;28;97633;-70
2021/01/14 05:23:07;;;;;;;0.20;0.20;;;-1.50;95.30;;;2.51;75.69;101930.91;5017961;28;97775;-70
2021/01/14 05:25:36;;;;;;;1.75;1.08;;;-1.50;95.30;;;2.39;75.24;101937.97;5026213;28;96766;-70
2021/01/14 05:28:14;;;;;;;8.88;1.30;;;-1.50;95.30;;;2.39;75.73;101943.25;5008390;28;96943;-70
2021/01/14 05:30:43;;;;;;;1.70;0.68;;;-1.50;95.30;;;2.59;74.74;101947.28;5015549;28;97429;-70
2021/01/14 05:33:16;;;;;;;0.20;0.20;;;-1.50;95.30;;;2.44;76.24;101949.50;5019569;27;97692;-70
2021/01/14 05:35:49;;;;;;;;;;;-1.60;95.30;;;2.67;74.95;101951.50;5009009;28;96880;-70
2021/01/14 05:38:27;;;;;;;0.10;0.10;;;-1.50;95.30;;;2.59;75.19;101947.28;5017746;28;96698;-70
2021/01/14 05:41:18;;;;;;;0.20;0.20;;;-1.50;95.30;;;2.53;74.55;101950.81;5019766;28;98141;-70
2021/01/14 05:43:55;;;;;;;0.40;0.40;;;-1.50;95.30;;;2.50;74.53;101945.97;5018406;28;97659;-70
2021/01/14 05:46:25;;;;;;;0.10;0.10;;;-1.60;95.20;;;2.56;74.88;101949.59;5032290;27;97004;-70
2021/01/14 05:48:55;;;;;;;0.57;0.43;;;-1.60;95.20;;;2.53;74.60;101956.13;5000037;28;96777;-70
2021/01/14 05:51:25;;;;;;;0.17;0.17;;;-1.60;95.30;;;2.57;74.55;101952.00;5019484;28;97946;-70
2021/01/14 05:54:04;;;;;;;3.95;1.58;;;-1.60;95.40;;;2.63;74.58;101960.91;4999242;28;98760;-70
2021/01/14 05:56:37;;;;;;;5.38;0.63;;;-1.60;95.50;;;2.82;74.68;101955.41;5017587;28;97270;-70
2021/01/14 05:59:09;;;;;;;2.92;0.40;;;-1.50;95.60;;;2.85;73.70;101962.88;5020430;28;96857;-70
2021/01/14 06:01:52;;;;;;;25.55;2.20;;;-1.50;95.60;;;2.92;73.22;101960.16;5023317;28;98773;-70
2021/01/14 06:04:22;;;;;;;0.15;0.15;;;-1.50;95.70;;;2.83;73.91;101964.94;5019111;28;97469;-70
2021/01/14 06:07:04;;;;;;;0.10;0.10;;;-1.50;95.70;;;2.85;74.39;101964.72;5016615;28;96668;-70
2021/01/14 06:09:44;;;;;;;0.10;0.10;;;-1.50;95.70;;;2.85;74.04;101977.94;5014049;28;97127;-70
2021/01/14 06:12:14;;;;;;;0.20;0.20;;;-1.50;95.70;;;2.84;74.85;101977.16;5019623;27;98606;-70
2021/01/14 06:14:42;;;;;;;0.28;0.28;;;-1.50;95.70;;;2.81;73.75;101979.41;5013849;28;97441;-70
2021/01/14 06:17:12;;;;;;;1.08;1.00;;;-1.50;95.70;;;2.82;73.62;101984.50;4996538;28;96739;-70
2021/01/14 06:19:41;;;;;;;2.40;0.73;;;-1.50;95.70;;;2.78;74.73;101987.78;5028570;27;96802;-70
2021/01/14 06:22:15;;;;;;;0.10;0.10;;;-1.50;95.70;;;2.83;74.81;101985.28;5018140;27;98029;-70
2021/01/14 06:24:44;;;;;;;0.13;0.13;;;-1.50;95.70;;;2.78;74.93;101993.09;5012129;28;97336;-70
2021/01/14 06:27:14;;;;;;;0.40;0.40;;;-1.50;95.70;;;2.76;74.34;101993.31;5016177;28;97290;-70
2021/01/14 06:29:44;;;;;;;2.72;1.65;;;-1.60;95.70;;;2.62;74.64;101991.03;5015021;28;97353;-70
2021/01/14 06:32:14;;;;;;;0.38;0.30;;;-1.50;95.70;;;2.59;74.36;101999.41;5024683;28;97791;-70
2021/01/14 06:34:44;;;;;;;0.35;0.35;;;-1.50;95.70;;;2.63;75.26;102004.03;5014758;28;98860;-70
2021/01/14 06:37:14;;;;;;;0.28;0.28;;;-1.50;95.70;;;2.51;75.10;102003.13;5015377;27;97235;-70
2021/01/14 06:39:45;;;;;;;2.65;0.90;;;-1.60;95.70;;;2.49;75.17;102007.84;5013969;28;97227;-70
2021/01/14 06:42:21;;;;;;;0.50;0.50;;;-1.50;95.70;;;2.69;75.07;102013.72;5012624;28;97989;-70
2021/01/14 06:44:58;;;;;;;0.20;0.20;;;-1.60;95.70;;;2.80;74.82;102018.31;5014816;28;98126;-70
2021/01/14 06:47:38;;;;;;;0.20;0.20;;;-1.60;95.70;;;2.77;73.29;102017.94;5013831;28;96810;-70
2021/01/14 06:50:23;;;;;;;0.20;0.20;;;-1.60;95.70;;;2.67;73.22;102020.28;5014773;28;97000;-70
2021/01/14 06:53:04;;;;;;;0.30;0.30;;;-1.60;95.60;;;2.55;74.98;102029.94;5012102;28;96928;-70
2021/01/14 06:55:33;;;;;;;3.42;1.85;;;-1.70;95.60;;;2.42;75.12;102024.78;5015792;28;97573;-70
2021/01/14 06:58:10;;;;;;;0.40;0.40;;;-1.70;95.60;;;2.35;75.25;102027.47;5013485;28;97088;-70
2021/01/14 07:00:41;;;;;;;0.70;0.68;;;-1.70;95.60;;;2.31;74.38;102021.00;5017223;28;97457;-70
2021/01/14 07:03:23;;;;;;;0.20;0.20;;;-1.70;95.60;;;2.27;74.71;102019.81;5003637;28;98347;-70
2021/01/14 07:06:08;;;;;;;1.75;1.05;;;-1.70;95.60;;;2.39;74.17;102026.00;5013600;28;97734;-70
2021/01/14 07:08:39;;;;;;;0.22;0.22;;;-1.70;95.60;;;2.35;74.61;102019.53;5016096;28;96700;-70
2021/01/14 07:11:14;;;;;;;0.47;0.47;;;-1.80;95.50;;;2.24;74.68;102030.84;5024475;28;97164;-70
2021/01/14 07:13:46;;;;;;;0.10;0.10;;;-1.80;95.50;;;2.21;74.27;102031.25;5012346;28;97508;-70
2021/01/14 07:16:17;;;;;;;0.77;0.47;;;-1.80;95.50;;;2.33;73.96;102039.31;5011925;28;97536;-70
2021/01/14 07:18:46;;;;;;;0.20;0.20;;;-1.80;95.50;;;2.37;74.44;102033.34;5008938;28;96831;-70
2021/01/14 07:21:27;;;;;;;0.32;0.32;;;-1.90;95.50;;;2.29;73.94;102035.47;5012741;28;96734;-70
2021/01/14 07:24:09;;;;;;;1.13;1.05;;;-1.90;95.50;;;2.43;72.76;102040.44;5011784;28;99100;-70
2021/01/14 07:26:43;;;;;;;2.20;0.75;;;-1.90;95.40;;;2.32;73.00;102043.78;5013930;28;96749;-69
2021/01/14 07:29:15;;;;;;;0.65;0.65;;;-1.90;95.40;;;2.34;73.69;102051.50;5003268;28;97448;-70
2021/01/14 07:31:50;;;;;;;0.40;0.40;;;-1.90;95.40;;;2.41;72.63;102053.09;5016494;28;97121;-69
2021/01/14 07:34:40;;;;;;;0.32;0.32;;;-2.00;95.40;;;2.47;72.57;102065.44;5013913;28;98163;-70
2021/01/14 07:37:11;;;;;;;0.20;0.20;;;-2.00;95.40;;;2.46;73.91;102060.34;5019171;28;96826;-70
2021/01/14 07:39:53;;;;;;;2.38;1.15;;;-2.00;95.40;;;2.53;72.95;102069.03;5010484;27;96827;-70
2021/01/14 07:42:26;;;;;;;23.58;5.63;;;-2.00;95.40;;;2.50;74.04;102064.19;5013091;28;97249;-69
2021/01/14 07:44:59;;;;;;;55.65;17.52;;;-1.90;95.50;;;2.39;73.14;102078.09;5022737;28;96928;-70
2021/01/14 07:47:33;;;;;;;93.35;26.67;;;-1.90;95.50;;;2.35;74.27;102075.06;5017017;27;97907;-70
2021/01/14 07:50:20;;;;;;;92.30;30.27;;;-1.90;95.40;;;2.22;74.46;102072.53;5012735;28;97129;-70
2021/01/14 07:52:50;;;;;;;50.72;17.13;;;-1.90;95.40;;;2.25;73.59;102085.31;5012807;28;97034;-70
2021/01/14 07:55:26;;;;;;;51.33;23.85;;;-1.90;95.40;;;2.14;74.66;102093.13;5013742;28;97101;-70
2021/01/14 07:58:04;;;;;;;26.63;13.23;;;-2.00;95.40;;;2.17;74.91;102090.88;5014119;27;97193;-70
2021/01/14 08:00:40;;;;;;;9.82;6.38;;;-1.90;95.40;;;2.11;74.94;102104.97;5013551;28;97451;-70
2021/01/14 08:03:10;;;;;;;7.90;4.10;;;-1.90;95.30;;;2.07;74.75;102103.72;5021222;28;96879;-70
2021/01/14 08:05:56;;;;;;;6.32;4.63;;;-1.90;95.30;;;2.23;74.56;102107.69;5014723;27;97828;-70
2021/01/14 08:08:31;;;;;;;15.75;3.83;;;-1.80;95.40;;;2.26;74.85;102109.94;5016147;28;97639;-70
2021/01/14 08:11:14;;;;;;;4.82;3.75;;;-1.80;95.40;;;2.29;76.29;102105.03;5011702;27;96841;-70
2021/01/14 08:14:13;;;;;;;11.52;2.45;;;-1.80;95.40;;;2.46;75.69;102113.25;5021043;28;97177;-70
2021/01/14 08:16:48;;;;;;;3.33;2.90;;;-1.70;95.40;;;2.61;75.66;102122.47;5011501;28;97888;-70
2021/01/14 08:19:32;;;;;;;0.28;0.28;;;-1.60;95.40;;;2.72;74.72;102118.31;5016630;28;96791;-70
2021/01/14 08:22:11;;;;;;;1.77;1.67;;;-1.60;95.40;;;2.84;75.13;102117.41;5018124;28;97497;-71
2021/01/14 08:24:48;;;;;;;0.10;0.10;;;-1.50;95.40;;;2.93;73.80;102125.88;5015607;28;96971;-70
2021/01/14 08:27:29;;;;;;;0.20;0.20;;;-1.50;95.40;;;2.95;73.71;102123.84;5000494;28;97887;-70
2021/01/14 08:30:03;;;;;;;0.25;0.25;;;-1.40;95.40;;;2.90;75.44;102124.47;5019408;28;97207;-70
2021/01/14 08:32:49;;;;;;;20.92;3.78;;;-1.40;95.40;;;2.90;74.23;102124.47;5025928;28;96834;-70
2021/01/14 08:35:28;;;;;;;0.80;0.75;;;-1.30;95.40;;;2.93;74.38;102131.97;5014493;28;97333;-70
2021/01/14 08:37:58;;;;;;;0.77;0.77;;;-1.30;95.40;;;3.01;75.45;102129.06;5018338;28;97877;-71
2021/01/14 08:40:30;;;;;;;0.22;0.22;;;-1.30;95.60;;;3.15;75.05;102131.38;5018563;28;97443;-70
2021/01/14 08:43:06;;;;;;;0.90;0.88;;;-1.20;95.40;;;3.09;74.91;102136.72;5018563;28;97838;-70
2021/01/14 08:45:42;;;;;;;0.45;0.38;;;-1.10;95.40;;;3.17;75.27;102136.44;5018093;27;97102;-70
2021/01/14 08:48:21;;;;;;;1.33;0.35;;;-1.10;95.40;;;3.29;75.35;102140.78;5018180;28;98486;-70
2021/01/14 08:51:02;;;;;;;1.98;0.85;;;-1.00;95.40;;;3.45;74.72;102145.53;5018153;28;98757;-70
2021/01/14 08:53:34;;;;;;;0.40;0.40;;;-0.90;95.40;;;3.57;75.40;102153.53;5016378;28;96656;-70
2021/01/14 08:56:08;;;;;;;3.22;1.85;;;-0.80;95.30;;;3.70;74.96;102146.22;5002540;28;96844;-70
2021/01/14 08:58:43;;;;;;;1.58;0.63;;;-0.70;95.30;;;3.74;75.10;102151.91;5016910;28;98076;-70
2021/01/14 09:01:17;;;;;;;0.20;0.20;;;-0.60;95.30;;;3.81;74.72;102152.63;5026197;28;97756;-70
2021/01/14 09:03:53;;;;;;;0.32;0.25;;;-0.50;95.30;;;3.81;74.77;102152.63;5021460;28;96822;-70
2021/01/14 09:06:30;;;;;;;1.05;1.00;;;-0.50;95.30;;;3.87;75.05;102144.59;5018957;28;98678;-70
2021/01/14 09:08:59;;;;;;;4.28;1.80;;;-0.40;95.30;;;3.96;75.27;102147.75;5018842;27;97913;-70
2021/01/14 09:11:33;;;;;;;3.20;1.05;;;-0.30;95.20;;;4.04;75.33;102150.09;5023294;28;97850;-71
2021/01/14 09:14:08;;;;;;;2.22;2.03;;;-0.30;95.20;;;4.19;74.81;102153.97;5022955;28;97167;-70
2021/01/14 09:16:41;;;;;;;0.43;0.43;;;-0.10;95.20;;;4.38;74.81;102157.38;5015437;28;96937;-71
2021/01/14 09:19:16;;;;;;;0.50;0.50;;;0.00;95.20;;;4.50;74.62;102158.19;5018014;28;97804;-71
2021/01/14 09:21:48;;;;;;;0.77;0.63;;;0.00;95.10;;;4.59;74.58;102152.34;5017144;28;97689;-71
2021/01/14 09:24:18;;;;;;;0.93;0.88;;;0.20;95.20;;;4.66;74.20;102153.06;5014144;28;96724;-70
2021/01/14 09:26:51;;;;;;;0.77;0.77;;;0.30;95.10;;;4.62;74.66;102155.38;5018020;28;96883;-70
2021/01/14 09:29:30;;;;;;;1.70;1.02;;;0.30;95.10;;;4.67;74.75;102162.66;5014479;28;99129;-70
2021/01/14 09:31:58;;;;;;;28.35;2.25;;;0.40;95.10;;;4.76;74.85;102170.03;5018541;27;97664;-71
2021/01/14 09:34:27;;;;;;;0.38;0.38;;;0.50;95.10;;;4.80;75.25;102165.91;5015723;28;97229;-71
2021/01/14 09:36:55;;;;;;;0.40;0.40;;;0.50;95.10;;;4.91;74.63;102172.25;5015723;27;96899;-71
2021/01/14 09:39:26;;;;;;;0.40;0.40;;;0.60;95.10;;;5.05;74.67;102166.50;5018355;27;97569;-71
2021/01/14 09:41:56;;;;;;;10.05;2.08;;;0.70;95.00;;;4.93;74.25;102171.00;5014303;28;97813;-72
2021/01/14 09:44:29;;;;;;;0.22;0.22;;;0.70;95.00;;;4.76;75.91;102170.03;5015801;28;96838;-71
2021/01/14 09:46:58;;;;;;;0.30;0.30;;;0.80;95.00;;;4.73;76.29;102175.81;5019075;28;98441;-71
2021/01/14 09:49:28;;;;;;;0.35;0.35;;;0.80;95.00;;;4.82;76.61;102174.47;5016814;27;98461;-71
2021/01/14 09:51:56;;;;;;;2.10;0.95;;;0.80;95.10;;;4.98;76.74;102167.66;5008226;28;97870;-71
2021/01/14 09:54:30;;;;;;;1.33;0.80;;;0.90;95.10;;;5.08;76.33;102166.03;5015924;28;96801;-71
2021/01/14 09:56:59;;;;;;;0.50;0.50;;;1.00;95.10;;;5.21;75.96;102171.13;5023589;28;97056;-71
2021/01/14 09:59:38;;;;;;;0.20;0.20;;;1.00;95.10;;;5.34;76.17;102170.09;5014707;28;97816;-71
2021/01/14 10:02:19;;;;;;;0.30;0.30;;;1.10;95.10;;;5.40;76.10;102171.81;5000323;28;97681;-71
2021/01/14 10:04:57;;;;;;;0.63;0.57;;;1.20;95.10;;;5.47;75.42;102160.03;5014553;28;96905;-71
2021/01/14 10:07:27;;;;;;;0.60;0.60;;;1.30;95.10;;;5.43;76.07;102174.81;5000996;28;96933;-72
2021/01/14 10:09:56;;;;;;;2.20;0.73;;;1.30;95.10;;;5.50;76.54;102175.50;5018612;28;97766;-72
2021/01/14 10:12:27;;;;;;;3.70;1.85;;;1.30;95.10;;;5.54;76.34;102179.31;5018594;27;97807;-72
2021/01/14 10:15:09;;;;;;;8.68;1.85;;;1.40;95.10;;;5.63;76.48;102174.44;5022276;27;96819;-72
2021/01/14 10:17:43;;;;;;;0.68;0.68;;;1.40;95.10;;;5.70;76.28;102172.47;5017882;28;97348;-72
2021/01/14 10:20:15;;;;;;;2.08;1.35;;;1.50;95.20;;;5.69;76.62;102179.63;5014762;28;97996;-71
2021/01/14 10:22:49;;;;;;;0.88;0.85;;;1.50;95.20;;;5.73;76.47;102172.00;5012863;28;97930;-72
2021/01/14 10:25:18;;;;;;;;;;;1.50;95.30;;;5.99;75.65;102182.94;5001535;28;96974;-72
2021/01/14 10:27:59;;;;;;;1.42;1.33;;;1.60;95.30;;;5.92;75.94;102179.59;5024667;27;97117;-72
2021/01/14 10:30:32;;;;;;;12.90;2.78;;;1.60;95.30;;;5.91;76.37;102180.66;5018719;28;97819;-72
2021/01/14 10:33:05;;;;;;;18.73;5.38;;;1.60;95.30;;;5.95;76.07;102181.78;5015496;28;97907;-72
2021/01/14 10:35:36;;;;;;;2.05;1.95;;;1.60;95.30;;;5.97;76.64;102182.34;5013636;28;97341;-72
2021/01/14 10:38:10;;;;;;;1.27;1.15;;;1.60;95.30;;;5.97;76.26;102185.00;5016803;28;97267;-72
2021/01/14 10:40:44;;;;;;;0.60;0.60;;;1.60;95.30;;;6.08;75.72;102176.22;5012811;28;98316;-72